Terminal Aerodrome Forecast
Issued by NWS

Home | Current Version | Previous Version | Text Only | Print | Product List | Glossary On
Versions: 1 2 3 4 5 6 7 8 9 10 11 12 13 14 15
000
FTUS43 KLSX 231100
TAFSUS
TAF
KSUS 231140Z 2312/2412 VRB03KT P6SM BKN250
     FM231600 18007KT P6SM SCT120 BKN250
     FM232000 18005KT P6SM BKN060 BKN200
     FM240400 20003KT P6SM SCT050
      TEMPO 2408/2412 3SM BR=

USA.gov is the U.S. government's official web portal to all federal, state and local government web resources and services.